createdAt,value
2023-02-15T00:01:38.874Z,67.68
2023-02-15T00:04:11.749Z,67.70
2023-02-15T00:06:43.918Z,67.92
2023-02-15T00:09:16.301Z,68.10
2023-02-15T00:11:49.859Z,68.17
2023-02-15T00:14:24.250Z,67.83
2023-02-15T00:16:56.104Z,67.49
2023-02-15T00:19:28.461Z,67.52
2023-02-15T00:22:00.623Z,67.33
2023-02-15T00:24:32.538Z,67.65
2023-02-15T00:27:04.576Z,67.78
2023-02-15T00:29:36.569Z,67.83
2023-02-15T00:32:09.383Z,67.79
2023-02-15T00:34:41.434Z,67.79
2023-02-15T00:37:13.509Z,67.50
2023-02-15T00:39:45.478Z,67.49
2023-02-15T00:42:17.646Z,67.39
2023-02-15T00:44:50.095Z,67.71
2023-02-15T00:47:22.184Z,67.96
2023-02-15T00:49:54.164Z,67.81
2023-02-15T00:52:26.239Z,67.76
2023-02-15T00:54:58.573Z,67.94
2023-02-15T00:57:30.506Z,67.64
2023-02-15T01:00:02.613Z,67.85
2023-02-15T01:02:34.970Z,68.10
2023-02-15T01:05:07.461Z,68.35
2023-02-15T01:07:39.760Z,68.29
2023-02-15T01:10:11.780Z,68.24
2023-02-15T01:12:44.427Z,68.27
2023-02-15T01:15:16.582Z,67.81
2023-02-15T01:17:50.377Z,67.90
2023-02-15T01:20:29.953Z,67.88
2023-02-15T01:23:01.887Z,67.53
2023-02-15T01:25:35.207Z,67.39
2023-02-15T01:28:07.675Z,67.57
2023-02-15T01:30:40.084Z,67.49
2023-02-15T01:33:14.814Z,67.59
2023-02-15T01:35:48.092Z,67.64
2023-02-15T01:38:21.030Z,67.63
2023-02-15T01:40:54.645Z,67.47
2023-02-15T01:43:29.902Z,67.23
2023-02-15T01:46:02.552Z,66.84
2023-02-15T01:48:34.855Z,66.84
2023-02-15T01:51:07.795Z,66.47
2023-02-15T01:53:54.245Z,66.54
2023-02-15T01:56:38.230Z,66.62
2023-02-15T01:59:16.039Z,66.36
2023-02-15T02:01:48.198Z,66.28
2023-02-15T02:04:35.851Z,65.94
2023-02-15T02:07:10.273Z,66.02
2023-02-15T02:09:43.438Z,66.00
2023-02-15T02:12:16.649Z,65.75
2023-02-15T02:14:50.635Z,65.83
2023-02-15T02:17:56.249Z,65.43
2023-02-15T02:20:47.640Z,65.44
2023-02-15T02:23:32.124Z,64.85
2023-02-15T02:26:24.965Z,64.50
2023-02-15T02:29:16.359Z,64.33
2023-02-15T02:32:10.256Z,63.80
2023-02-15T02:34:48.257Z,63.87
2023-02-15T02:37:38.137Z,63.79
2023-02-15T02:40:18.110Z,63.72
2023-02-15T02:42:53.212Z,64.07
2023-02-15T02:45:28.537Z,64.32
2023-02-15T02:48:06.208Z,64.57
2023-02-15T02:50:39.969Z,64.71
2023-02-15T02:53:15.619Z,64.78
2023-02-15T02:55:51.458Z,64.81
2023-02-15T02:58:41.054Z,64.58
2023-02-15T03:01:43.986Z,64.05
2023-02-15T03:04:19.430Z,63.65
2023-02-15T03:07:04.108Z,63.70
2023-02-15T03:09:51.011Z,63.70
2023-02-15T03:12:32.429Z,64.05
2023-02-15T03:15:13.043Z,64.31
2023-02-15T03:17:47.912Z,63.85
2023-02-15T03:20:29.827Z,63.74
2023-02-15T03:23:07.797Z,63.71
2023-02-15T03:25:45.793Z,63.68
2023-02-15T03:28:24.106Z,63.56
2023-02-15T03:30:59.284Z,63.33
2023-02-15T03:33:31.996Z,63.13
2023-02-15T03:36:17.876Z,63.47
2023-02-15T03:38:55.652Z,63.61
2023-02-15T03:41:30.854Z,63.82
2023-02-15T03:44:08.740Z,63.54
2023-02-15T03:47:15.984Z,63.79
2023-02-15T03:50:03.100Z,64.39
2023-02-15T03:52:38.096Z,64.26
2023-02-15T03:55:10.076Z,64.35
2023-02-15T03:58:00.840Z,64.41
2023-02-15T04:00:53.485Z,64.38
2023-02-15T04:03:37.974Z,64.36
2023-02-15T04:06:10.460Z,64.41
2023-02-15T04:09:00.364Z,64.25
2023-02-15T04:11:33.167Z,64.41
2023-02-15T04:14:07.275Z,63.96
2023-02-15T04:16:39.509Z,63.93
2023-02-15T04:19:29.421Z,63.63
2023-02-15T04:22:19.047Z,63.72
2023-02-15T04:25:08.734Z,63.52
2023-02-15T04:27:45.380Z,62.98
2023-02-15T04:30:19.884Z,62.78
2023-02-15T04:32:52.550Z,62.03
2023-02-15T04:35:25.256Z,61.74
2023-02-15T04:37:57.758Z,62.17
2023-02-15T04:40:30.638Z,61.97
2023-02-15T04:43:03.453Z,61.77
2023-02-15T04:45:35.920Z,61.82
2023-02-15T04:48:08.497Z,61.88
2023-02-15T04:50:41.487Z,62.04
2023-02-15T04:53:14.759Z,61.79
2023-02-15T04:55:47.677Z,61.40
2023-02-15T04:58:19.641Z,61.35
2023-02-15T05:00:52.309Z,61.70
2023-02-15T05:03:25.415Z,61.85
2023-02-15T05:05:58.537Z,61.78
2023-02-15T05:08:31.544Z,62.09
2023-02-15T05:11:04.002Z,62.31
2023-02-15T05:13:35.979Z,62.25
2023-02-15T05:16:08.441Z,62.55
2023-02-15T05:18:41.668Z,62.18
2023-02-15T05:21:14.695Z,62.00
2023-02-15T05:23:47.957Z,61.83
2023-02-15T05:26:41.100Z,61.64
2023-02-15T05:29:13.635Z,61.90
2023-02-15T05:31:48.892Z,62.25
2023-02-15T05:34:21.451Z,61.86
2023-02-15T05:36:53.956Z,61.54
2023-02-15T05:39:26.229Z,61.58
2023-02-15T05:42:03.520Z,61.52
2023-02-15T05:44:35.926Z,61.64
2023-02-15T05:47:09.197Z,61.49
2023-02-15T05:49:42.164Z,61.36
2023-02-15T05:52:15.668Z,61.72
2023-02-15T05:54:48.636Z,61.09
2023-02-15T05:57:21.198Z,61.41
2023-02-15T05:59:54.450Z,61.38
2023-02-15T06:02:26.923Z,60.49
2023-02-15T06:04:59.307Z,60.61
2023-02-15T06:07:32.556Z,60.89
2023-02-15T06:10:04.675Z,60.72
2023-02-15T06:12:37.165Z,60.70
2023-02-15T06:15:10.299Z,61.30
2023-02-15T06:17:45.180Z,60.69
2023-02-15T06:20:18.993Z,60.44
2023-02-15T06:22:51.371Z,60.49
2023-02-15T06:25:24.890Z,60.54
2023-02-15T06:27:57.804Z,60.75
2023-02-15T06:30:30.097Z,60.22
2023-02-15T06:33:02.513Z,60.32
2023-02-15T06:35:35.728Z,59.75
2023-02-15T06:38:08.316Z,59.39
2023-02-15T06:40:40.724Z,59.32
2023-02-15T06:43:13.602Z,59.17
2023-02-15T06:45:47.027Z,59.17
2023-02-15T06:48:20.424Z,59.22
2023-02-15T06:50:53.453Z,59.12
2023-02-15T06:53:26.782Z,58.86
2023-02-15T06:56:08.157Z,58.78
2023-02-15T06:58:46.951Z,58.78
2023-02-15T07:01:19.619Z,58.83
2023-02-15T07:03:52.443Z,58.37
2023-02-15T07:06:24.501Z,59.15
2023-02-15T07:08:56.811Z,59.27
2023-02-15T07:11:47.267Z,58.50
2023-02-15T07:14:20.128Z,58.12
2023-02-15T07:16:52.170Z,58.68
2023-02-15T07:19:24.663Z,58.51
2023-02-15T07:21:56.764Z,58.26
2023-02-15T07:24:29.994Z,58.73
2023-02-15T07:27:02.962Z,59.18
2023-02-15T07:29:35.626Z,59.72
2023-02-15T07:32:08.371Z,59.74
2023-02-15T07:34:42.302Z,59.62
2023-02-15T07:37:16.440Z,59.96
2023-02-15T07:39:49.005Z,60.60
2023-02-15T07:42:22.319Z,60.49
2023-02-15T07:44:54.859Z,60.44
2023-02-15T07:47:29.313Z,60.71
2023-02-15T07:50:00.924Z,60.45
2023-02-15T07:52:33.160Z,60.08
2023-02-15T07:55:06.177Z,59.70
2023-02-15T07:57:38.211Z,59.67
2023-02-15T08:00:11.277Z,59.57
2023-02-15T08:02:45.064Z,59.47
2023-02-15T08:05:19.351Z,60.19
2023-02-15T08:07:51.765Z,59.54
2023-02-15T08:10:25.736Z,58.79
2023-02-15T08:12:58.194Z,58.22
2023-02-15T08:15:30.948Z,58.39
2023-02-15T08:18:02.836Z,58.70
2023-02-15T08:20:35.054Z,58.01
2023-02-15T08:23:07.766Z,58.12
2023-02-15T08:25:40.249Z,57.17
2023-02-15T08:28:14.172Z,56.73
2023-02-15T08:30:46.786Z,56.44
2023-02-15T08:33:20.089Z,57.00
2023-02-15T08:35:52.738Z,56.88
2023-02-15T08:38:25.464Z,56.80
2023-02-15T08:40:59.197Z,57.33
2023-02-15T08:43:32.451Z,58.06
2023-02-15T08:46:04.911Z,58.15
2023-02-15T08:48:37.221Z,57.99
2023-02-15T08:51:16.110Z,57.79
2023-02-15T08:53:53.337Z,57.40
2023-02-15T08:56:28.595Z,57.98
2023-02-15T08:59:00.839Z,57.53
2023-02-15T09:01:36.076Z,57.32
2023-02-15T09:04:14.272Z,57.25
2023-02-15T09:06:48.737Z,56.30
2023-02-15T09:09:21.858Z,54.95
2023-02-15T09:11:59.226Z,55.61
2023-02-15T09:14:29.204Z,54.63
2023-02-15T09:17:02.167Z,54.92
2023-02-15T09:19:34.889Z,54.46
2023-02-15T09:22:07.406Z,55.17
2023-02-15T09:24:39.532Z,54.84
2023-02-15T09:27:12.422Z,55.00
2023-02-15T09:29:44.828Z,54.77
2023-02-15T09:32:18.839Z,55.22
2023-02-15T09:34:51.208Z,54.61
2023-02-15T09:37:23.523Z,55.06
2023-02-15T09:39:56.858Z,55.55
2023-02-15T09:42:56.532Z,55.43
2023-02-15T09:45:41.622Z,55.44
2023-02-15T09:48:27.156Z,54.71
2023-02-15T09:51:02.798Z,55.37
2023-02-15T09:53:58.016Z,55.39
2023-02-15T09:56:37.883Z,56.22
2023-02-15T09:59:27.893Z,55.54
2023-02-15T10:02:22.221Z,54.73
2023-02-15T10:05:17.725Z,54.60
2023-02-15T10:08:01.832Z,54.19
2023-02-15T10:10:37.629Z,54.51
2023-02-15T10:13:22.000Z,53.74
2023-02-15T10:16:18.279Z,53.17
2023-02-15T10:19:02.403Z,53.37
2023-02-15T10:21:59.068Z,53.83
2023-02-15T10:24:47.235Z,54.43
2023-02-15T10:27:20.734Z,53.73
2023-02-15T10:30:11.016Z,53.94
2023-02-15T10:33:03.005Z,53.56
2023-02-15T10:35:53.873Z,54.70
2023-02-15T10:38:50.428Z,54.83
2023-02-15T10:41:46.886Z,55.36
2023-02-15T10:44:32.990Z,55.99
2023-02-15T10:47:36.610Z,55.99
2023-02-15T10:50:29.845Z,56.22
2023-02-15T10:53:13.783Z,55.69
2023-02-15T10:55:47.254Z,54.77
2023-02-15T10:58:43.541Z,54.77
2023-02-15T11:01:33.067Z,55.12
2023-02-15T11:04:30.605Z,55.44
2023-02-15T11:07:08.777Z,55.40
2023-02-15T11:09:47.380Z,56.37
2023-02-15T11:12:23.258Z,56.78
2023-02-15T11:15:15.289Z,57.46
2023-02-15T11:17:53.502Z,57.59
2023-02-15T11:20:34.661Z,57.43
2023-02-15T11:23:10.120Z,56.89
2023-02-15T11:25:44.536Z,56.87
2023-02-15T11:28:22.623Z,57.27
2023-02-15T11:30:57.964Z,56.94
2023-02-15T11:33:36.165Z,57.77
2023-02-15T11:36:11.397Z,57.57
2023-02-15T11:38:45.087Z,57.98
2023-02-15T11:41:20.824Z,57.73
2023-02-15T11:44:02.434Z,58.38
2023-02-15T11:46:35.355Z,58.35
2023-02-15T11:49:31.155Z,58.68
2023-02-15T11:52:06.166Z,58.38
2023-02-15T11:54:40.994Z,58.76
2023-02-15T11:57:20.877Z,59.31
2023-02-15T11:59:56.910Z,59.49
2023-02-15T12:02:31.322Z,59.30
2023-02-15T12:05:06.003Z,59.20
2023-02-15T12:08:01.776Z,58.55
2023-02-15T12:10:39.969Z,58.62
2023-02-15T12:13:16.204Z,58.95
2023-02-15T12:15:51.125Z,58.49
2023-02-15T12:18:34.548Z,58.98
2023-02-15T12:21:09.911Z,58.70
2023-02-15T12:23:48.055Z,58.11
2023-02-15T12:26:33.997Z,57.62
2023-02-15T12:29:24.113Z,57.29
2023-02-15T12:32:01.840Z,56.83
2023-02-15T12:34:43.958Z,57.07
2023-02-15T12:37:25.754Z,57.54
2023-02-15T12:40:00.959Z,58.00
2023-02-15T12:42:45.793Z,57.96
2023-02-15T12:45:33.544Z,57.97
2023-02-15T12:48:23.950Z,58.18
2023-02-15T12:50:59.262Z,58.17
2023-02-15T12:53:37.500Z,58.69
2023-02-15T12:56:12.157Z,58.17
2023-02-15T12:58:46.374Z,58.37
2023-02-15T13:01:19.157Z,58.42
2023-02-15T13:04:02.480Z,58.25
2023-02-15T13:06:38.854Z,57.92
2023-02-15T13:09:31.188Z,58.13
2023-02-15T13:12:18.650Z,58.18
2023-02-15T13:14:54.223Z,58.05
2023-02-15T13:17:35.944Z,58.05
2023-02-15T13:20:10.989Z,58.34
2023-02-15T13:22:45.805Z,58.54
2023-02-15T13:25:21.107Z,58.49
2023-02-15T13:27:59.340Z,58.00
2023-02-15T13:30:43.937Z,57.95
2023-02-15T13:33:34.682Z,57.71
2023-02-15T13:36:24.737Z,57.40
2023-02-15T13:39:06.492Z,57.32
2023-02-15T13:42:04.615Z,57.42
2023-02-15T13:45:13.321Z,57.41
2023-02-15T13:48:10.663Z,57.19
2023-02-15T13:51:03.473Z,57.79
2023-02-15T13:53:50.745Z,57.48
2023-02-15T13:56:30.407Z,57.43
2023-02-15T13:59:12.162Z,58.11
2023-02-15T14:01:49.845Z,58.09
2023-02-15T14:04:44.213Z,58.16
2023-02-15T14:07:20.522Z,57.96
2023-02-15T14:10:25.629Z,57.41
2023-02-15T14:13:03.996Z,57.46
2023-02-15T14:15:46.668Z,57.60
2023-02-15T14:18:54.798Z,58.44
2023-02-15T14:21:35.583Z,59.22
2023-02-15T14:24:19.299Z,59.10
2023-02-15T14:27:03.394Z,60.06
2023-02-15T14:29:53.783Z,59.71
2023-02-15T14:32:38.200Z,59.29
2023-02-15T14:35:17.185Z,59.22
2023-02-15T14:38:01.309Z,59.09
2023-02-15T14:40:52.045Z,59.10
2023-02-15T14:43:51.342Z,58.94
2023-02-15T14:46:50.851Z,58.99
2023-02-15T14:49:32.152Z,59.36
2023-02-15T14:52:15.337Z,59.41
2023-02-15T14:54:50.631Z,59.05
2023-02-15T14:57:27.872Z,59.44
2023-02-15T15:00:04.603Z,59.33
2023-02-15T15:02:52.272Z,59.29
2023-02-15T15:05:37.842Z,59.17
2023-02-15T15:08:13.954Z,59.23
2023-02-15T15:10:48.647Z,58.65
2023-02-15T15:13:37.518Z,58.85
2023-02-15T15:16:28.914Z,58.71
2023-02-15T15:19:01.948Z,58.63
2023-02-15T15:21:54.604Z,58.93
2023-02-15T15:24:42.978Z,58.87
2023-02-15T15:27:50.901Z,59.35
2023-02-15T15:30:29.489Z,59.53
2023-02-15T15:33:22.499Z,59.25
2023-02-15T15:36:14.158Z,59.75
2023-02-15T15:39:16.593Z,60.29
2023-02-15T15:41:57.465Z,60.76
2023-02-15T15:45:04.609Z,60.62
2023-02-15T15:48:06.968Z,60.50
2023-02-15T15:50:35.896Z,60.49
2023-02-15T15:53:08.871Z,60.55
2023-02-15T15:55:42.020Z,60.38
2023-02-15T15:58:17.385Z,60.42
2023-02-15T16:01:04.965Z,60.15
2023-02-15T16:03:37.524Z,60.21
2023-02-15T16:06:13.422Z,60.25
2023-02-15T16:08:45.768Z,60.21
2023-02-15T16:11:24.102Z,59.86
2023-02-15T16:13:57.540Z,59.33
2023-02-15T16:16:32.289Z,59.11
2023-02-15T16:19:06.679Z,59.27
2023-02-15T16:21:40.012Z,59.25
2023-02-15T16:24:32.476Z,59.30
2023-02-15T16:27:31.919Z,59.41
2023-02-15T16:30:27.311Z,59.15
2023-02-15T16:33:12.017Z,59.90
2023-02-15T16:36:03.494Z,59.50
2023-02-15T16:38:47.376Z,59.53
2023-02-15T16:41:25.859Z,59.66
2023-02-15T16:44:01.104Z,60.13
2023-02-15T16:46:36.171Z,60.05
2023-02-15T16:49:11.797Z,60.07
2023-02-15T16:51:46.811Z,60.23
2023-02-15T16:54:22.675Z,60.50
2023-02-15T16:56:54.986Z,59.82
2023-02-15T16:59:36.484Z,59.80
2023-02-15T17:02:11.532Z,60.08
2023-02-15T17:04:43.713Z,60.66
2023-02-15T17:07:21.341Z,60.13
2023-02-15T17:10:01.965Z,60.15
2023-02-15T17:12:56.983Z,60.39
2023-02-15T17:15:38.046Z,60.68
2023-02-15T17:18:19.208Z,60.50
2023-02-15T17:20:54.110Z,60.56
2023-02-15T17:23:34.628Z,60.22
2023-02-15T17:26:18.026Z,60.33
2023-02-15T17:28:54.648Z,60.80
2023-02-15T17:31:29.831Z,60.83
2023-02-15T17:34:03.871Z,60.50
2023-02-15T17:36:36.025Z,60.70
2023-02-15T17:39:12.335Z,60.65
2023-02-15T17:41:45.761Z,60.86
2023-02-15T17:44:19.634Z,61.23
2023-02-15T17:46:51.579Z,61.26
2023-02-15T17:49:32.921Z,60.80
2023-02-15T17:52:05.586Z,60.58
2023-02-15T17:54:55.507Z,60.81
2023-02-15T17:57:29.102Z,61.54
2023-02-15T18:00:19.185Z,61.61
2023-02-15T18:03:10.185Z,61.87
2023-02-15T18:05:59.956Z,61.77
2023-02-15T18:08:49.921Z,61.69
2023-02-15T18:11:38.043Z,61.87
2023-02-15T18:14:11.812Z,61.81
2023-02-15T18:16:46.421Z,62.06
2023-02-15T18:19:21.422Z,61.77
2023-02-15T18:21:55.786Z,61.70
2023-02-15T18:24:28.887Z,61.91
2023-02-15T18:27:00.961Z,61.94
2023-02-15T18:29:33.368Z,62.27
2023-02-15T18:32:07.445Z,62.88
2023-02-15T18:34:42.819Z,62.10
2023-02-15T18:37:18.381Z,61.78
2023-02-15T18:39:54.578Z,61.79
2023-02-15T18:42:38.267Z,62.05
2023-02-15T18:45:22.075Z,62.32
2023-02-15T18:47:55.164Z,61.97
2023-02-15T18:50:30.081Z,61.86
2023-02-15T18:53:04.690Z,61.90
2023-02-15T18:55:37.078Z,62.54
2023-02-15T18:58:12.312Z,62.37
2023-02-15T19:00:45.517Z,62.58
2023-02-15T19:03:19.148Z,62.52
2023-02-15T19:05:51.387Z,62.87
2023-02-15T19:08:24.980Z,63.03
2023-02-15T19:10:57.561Z,63.04
2023-02-15T19:13:29.979Z,63.31
2023-02-15T19:16:02.732Z,63.46
2023-02-15T19:18:35.093Z,63.77
2023-02-15T19:21:07.697Z,63.83
2023-02-15T19:23:39.755Z,63.64
2023-02-15T19:26:13.470Z,63.46
2023-02-15T19:28:46.477Z,63.72
2023-02-15T19:31:18.433Z,63.95
2023-02-15T19:33:51.257Z,64.07
2023-02-15T19:36:23.366Z,63.83
2023-02-15T19:38:56.330Z,63.94
2023-02-15T19:41:31.522Z,63.95
2023-02-15T19:44:03.481Z,64.07
2023-02-15T19:46:37.117Z,64.16
2023-02-15T19:49:11.093Z,63.93
2023-02-15T19:51:42.445Z,64.06
2023-02-15T19:54:32.078Z,64.03
2023-02-15T19:57:04.081Z,64.50
2023-02-15T19:59:36.054Z,64.76
2023-02-15T20:02:08.489Z,65.14
2023-02-15T20:04:40.805Z,64.71
2023-02-15T20:07:27.223Z,65.06
2023-02-15T20:09:59.099Z,65.65
2023-02-15T20:12:32.868Z,65.92
2023-02-15T20:15:07.861Z,65.81
2023-02-15T20:17:39.603Z,65.99
2023-02-15T20:20:13.653Z,65.99
2023-02-15T20:22:48.303Z,65.80
2023-02-15T20:25:28.614Z,65.67
2023-02-15T20:28:01.155Z,66.41
2023-02-15T20:30:33.672Z,66.59
2023-02-15T20:33:06.279Z,66.86
2023-02-15T20:35:39.074Z,66.77
2023-02-15T20:38:17.051Z,66.58
2023-02-15T20:41:07.058Z,66.30
2023-02-15T20:43:39.274Z,66.47
2023-02-15T20:46:11.376Z,66.44
2023-02-15T20:48:43.677Z,66.43
2023-02-15T20:51:18.819Z,66.25
2023-02-15T20:53:50.909Z,66.20
2023-02-15T20:56:24.759Z,66.47
2023-02-15T20:58:56.294Z,66.52
2023-02-15T21:01:28.197Z,66.33
2023-02-15T21:04:00.510Z,66.33
2023-02-15T21:06:32.870Z,66.62
2023-02-15T21:09:04.964Z,66.25
2023-02-15T21:11:37.319Z,66.72
2023-02-15T21:14:12.165Z,66.57
2023-02-15T21:16:44.687Z,66.83
2023-02-15T21:19:18.815Z,66.65
2023-02-15T21:21:53.136Z,67.11
2023-02-15T21:24:28.064Z,67.31
2023-02-15T21:27:06.160Z,67.69
2023-02-15T21:29:38.206Z,67.34
2023-02-15T21:32:12.172Z,67.09
2023-02-15T21:34:44.747Z,67.09
2023-02-15T21:37:22.595Z,66.81
2023-02-15T21:39:54.648Z,67.10
2023-02-15T21:42:44.703Z,66.96
2023-02-15T21:45:36.359Z,67.46
2023-02-15T21:48:08.365Z,67.31
2023-02-15T21:50:58.562Z,66.71
2023-02-15T21:53:35.769Z,66.77
2023-02-15T21:56:10.143Z,67.07
2023-02-15T21:58:42.158Z,66.89
2023-02-15T22:01:26.222Z,66.80
2023-02-15T22:04:00.230Z,67.04
2023-02-15T22:06:32.514Z,67.10
2023-02-15T22:09:06.161Z,67.04
2023-02-15T22:11:38.240Z,66.98
2023-02-15T22:14:29.319Z,67.11
2023-02-15T22:17:01.385Z,67.07
2023-02-15T22:19:33.571Z,67.10
2023-02-15T22:22:05.968Z,66.89
2023-02-15T22:24:38.119Z,67.02
2023-02-15T22:27:25.823Z,67.01
2023-02-15T22:29:58.482Z,66.60
2023-02-15T22:32:30.547Z,66.41
2023-02-15T22:35:02.803Z,66.51
2023-02-15T22:37:34.742Z,66.55
2023-02-15T22:40:07.870Z,66.68
2023-02-15T22:42:40.558Z,66.57
2023-02-15T22:45:21.529Z,66.50
2023-02-15T22:47:58.847Z,66.55
2023-02-15T22:50:33.096Z,66.86
2023-02-15T22:53:05.608Z,66.53
2023-02-15T22:55:40.032Z,66.65
2023-02-15T22:58:24.059Z,67.02
2023-02-15T23:00:58.052Z,66.92
2023-02-15T23:03:34.490Z,67.01
2023-02-15T23:06:06.717Z,67.17
2023-02-15T23:08:38.778Z,67.00
2023-02-15T23:11:12.296Z,67.31
2023-02-15T23:13:44.486Z,67.61
2023-02-15T23:16:18.708Z,67.74
2023-02-15T23:18:51.199Z,67.12
2023-02-15T23:21:28.935Z,67.43
2023-02-15T23:24:23.218Z,67.31
2023-02-15T23:26:57.446Z,67.18
2023-02-15T23:29:28.517Z,67.43
2023-02-15T23:32:00.416Z,67.22
2023-02-15T23:34:32.644Z,67.23
2023-02-15T23:37:04.779Z,67.35
2023-02-15T23:39:54.522Z,67.28
2023-02-15T23:42:29.728Z,67.27
2023-02-15T23:45:02.325Z,67.58
2023-02-15T23:47:53.965Z,67.75
2023-02-15T23:50:31.504Z,67.98
2023-02-15T23:53:03.515Z,67.97
2023-02-15T23:55:38.316Z,67.81
2023-02-15T23:58:23.449Z,67.92
